Time;durP1;ratioP1;P1;durP2;ratioP2;P2;SDS_P1;SDS_P2;PMS_P1;PMS_P2;Temp;Humidity;BMP_temperature;BMP_pressure;BME280_temperature;BME280_humidity;BME280_pressure;Samples;Min_cycle;Max_cycle;Signal;HPM_P1;HPM_P2
2021/03/16 00:02:28;;;;;;;9.43;2.35;;;;;;;1.02;81.54;101125.69;5016481;28;20115;-64
2021/03/16 00:04:55;;;;;;;9.40;2.13;;;;;;;0.95;81.32;101119.94;4997556;28;20041;-64
2021/03/16 00:07:27;;;;;;;6.35;2.58;;;;;;;0.89;81.29;101115.06;5013624;28;20041;-64
2021/03/16 00:09:53;;;;;;;2.80;1.77;;;;;;;0.87;81.24;101123.94;5031037;28;20128;-64
2021/03/16 00:12:18;;;;;;;6.93;1.92;;;;;;;0.81;81.26;101127.81;5013752;28;20131;-64
2021/03/16 00:14:44;;;;;;;6.93;2.60;;;;;;;0.82;81.08;101138.22;5030015;28;20092;-64
2021/03/16 00:17:09;;;;;;;8.00;1.60;;;;;;;0.91;80.70;101138.63;5013626;28;20037;-64
2021/03/16 00:19:35;;;;;;;4.75;2.22;;;;;;;0.79;80.78;101133.13;5030692;28;20356;-64
2021/03/16 00:22:01;;;;;;;6.47;1.83;;;;;;;0.75;80.59;101139.53;5031008;28;20095;-64
2021/03/16 00:24:26;;;;;;;7.03;1.88;;;;;;;0.76;80.33;101140.38;5013578;28;20045;-64
2021/03/16 00:26:51;;;;;;;7.50;1.93;;;;;;;0.70;80.35;101140.72;5030929;28;20052;-64
2021/03/16 00:29:17;;;;;;;3.27;1.60;;;;;;;0.63;80.61;101145.47;5013275;28;20084;-64
2021/03/16 00:31:42;;;;;;;4.90;2.30;;;;;;;0.68;80.45;101147.84;5013564;28;20038;-64
2021/03/16 00:34:08;;;;;;;9.47;2.07;;;;;;;0.59;80.53;101150.09;5030828;28;20521;-64
2021/03/16 00:36:34;;;;;;;6.17;2.13;;;;;;;0.62;80.62;101162.19;5029999;28;20057;-64
2021/03/16 00:38:59;;;;;;;9.80;2.45;;;;;;;0.60;81.00;101154.38;5013285;28;20103;-64
2021/03/16 00:41:25;;;;;;;3.47;1.63;;;;;;;0.64;80.16;101155.06;5030909;28;20037;-64
2021/03/16 00:43:51;;;;;;;7.60;1.77;;;;;;;0.68;79.67;101155.72;5013212;28;20459;-64
2021/03/16 00:46:17;;;;;;;5.82;2.03;;;;;;;0.54;80.00;101164.41;5030845;28;20034;-64
2021/03/16 00:48:42;;;;;;;7.65;1.77;;;;;;;0.52;80.17;101163.66;5030321;28;20140;-64
2021/03/16 00:51:08;;;;;;;2.87;1.87;;;;;;;0.41;80.79;101162.47;5013394;28;20049;-64
2021/03/16 00:53:33;;;;;;;10.00;2.13;;;;;;;0.34;81.12;101161.13;5013536;28;20052;-63
2021/03/16 00:56:05;;;;;;;3.70;1.83;;;;;;;0.30;81.07;101170.13;5029742;28;20045;-64
2021/03/16 00:58:32;;;;;;;7.07;1.95;;;;;;;0.31;80.99;101176.22;5030433;28;20462;-64
2021/03/16 01:00:58;;;;;;;6.97;2.00;;;;;;;0.31;80.80;101174.44;5013326;28;20046;-64
2021/03/16 01:03:24;;;;;;;6.18;1.77;;;;;;;0.32;81.05;101175.28;5013223;28;20041;-63
2021/03/16 01:05:51;;;;;;;4.90;2.35;;;;;;;0.24;81.14;101186.22;5030561;28;20367;-64
2021/03/16 01:08:17;;;;;;;3.15;1.30;;;;;;;0.24;81.65;101175.72;5032050;28;20063;-63
2021/03/16 01:10:43;;;;;;;4.00;1.83;;;;;;;0.36;80.55;101172.41;5033987;28;20041;-64
2021/03/16 01:13:08;;;;;;;3.92;1.67;;;;;;;0.29;80.52;101168.44;5016792;28;20379;-63
2021/03/16 01:15:33;;;;;;;5.10;1.43;;;;;;;0.24;81.24;101177.50;5033286;28;20095;-64
2021/03/16 01:17:59;;;;;;;3.93;1.80;;;;;;;0.19;81.47;101183.84;5032643;28;20045;-63
2021/03/16 01:20:26;;;;;;;6.13;1.80;;;;;;;0.22;81.68;101182.84;5034008;28;20041;-64
2021/03/16 01:22:51;;;;;;;2.83;1.58;;;;;;;0.13;82.21;101185.97;5016541;28;20034;-64
2021/03/16 01:25:17;;;;;;;6.10;1.50;;;;;;;0.13;82.51;101183.34;5032933;28;20067;-63
2021/03/16 01:27:42;;;;;;;8.43;1.83;;;;;;;0.18;81.70;101191.81;5033662;28;20312;-63
2021/03/16 01:30:09;;;;;;;5.03;2.03;;;;;;;0.18;81.73;101186.56;5033868;28;20033;-63
2021/03/16 01:32:34;;;;;;;4.70;1.60;;;;;;;0.14;81.81;101195.53;5016411;28;20052;-64
2021/03/16 01:35:00;;;;;;;3.92;1.70;;;;;;;0.07;82.33;101183.66;5016425;28;20042;-63
2021/03/16 01:37:25;;;;;;;4.45;2.05;;;;;;;0.02;82.73;101186.53;5033477;28;20057;-63
2021/03/16 01:39:50;;;;;;;7.40;2.20;;;;;;;0.04;82.09;101194.34;5015949;28;20044;-63
2021/03/16 01:42:16;;;;;;;5.97;1.53;;;;;;;0.06;82.09;101195.13;5016127;28;20041;-63
2021/03/16 01:44:44;;;;;;;6.65;1.73;;;;;;;0.01;82.26;101189.28;5016099;28;20037;-63
2021/03/16 01:47:15;;;;;;;3.38;1.85;;;;;;;-0.05;82.57;101185.19;5032461;28;20066;-63
2021/03/16 01:49:41;;;;;;;3.85;1.92;;;;;;;-0.10;83.07;101182.81;5033077;28;20053;-63
2021/03/16 01:52:06;;;;;;;4.60;1.83;;;;;;;-0.18;83.41;101179.78;5015949;28;20033;-63
2021/03/16 01:54:32;;;;;;;5.25;1.65;;;;;;;-0.20;83.81;101184.25;5033273;28;20509;-63
2021/03/16 01:57:02;;;;;;;3.42;1.75;;;;;;;-0.20;83.51;101179.00;5032278;28;20045;-63
2021/03/16 01:59:46;;;;;;;7.80;2.50;;;;;;;-0.25;83.60;101187.13;5018589;28;20047;-63
2021/03/16 02:02:30;;;;;;;5.88;1.90;;;;;;;-0.29;83.74;101192.63;5033293;28;20048;-63
2021/03/16 02:05:15;;;;;;;4.82;1.85;;;;;;;-0.34;83.27;101192.03;5033202;28;20107;-63
2021/03/16 02:08:09;;;;;;;4.40;1.80;;;;;;;-0.41;83.67;101198.53;5018181;28;20103;-63
2021/03/16 02:11:29;;;;;;;5.70;1.80;;;;;;;-0.43;83.86;101196.81;5033161;28;20164;-63
2021/03/16 02:14:31;;;;;;;5.60;2.13;;;;;;;-0.38;83.98;101203.59;5033388;28;20148;-63
2021/03/16 02:17:20;;;;;;;6.05;3.13;;;;;;;-0.42;84.05;101197.69;5018084;28;20045;-63
2021/03/16 02:20:23;;;;;;;3.65;1.70;;;;;;;-0.46;83.94;101206.63;5032578;28;20063;-63
2021/03/16 02:23:10;;;;;;;3.95;1.85;;;;;;;-0.40;83.81;101194.94;5032906;28;20091;-63
2021/03/16 02:26:13;;;;;;;4.45;2.00;;;;;;;-0.51;84.15;101201.63;5032746;28;20056;-63
2021/03/16 02:29:08;;;;;;;5.68;1.90;;;;;;;-0.55;84.03;101200.09;5032493;28;20052;-63
2021/03/16 02:31:56;;;;;;;5.93;1.83;;;;;;;-0.57;84.34;101206.34;5031892;28;20103;-63
2021/03/16 02:34:45;;;;;;;4.82;1.70;;;;;;;-0.70;84.56;101209.59;5032686;28;20268;-63
2021/03/16 02:37:34;;;;;;;4.32;1.90;;;;;;;-0.59;84.55;101201.16;5032280;28;20111;-63
2021/03/16 02:40:20;;;;;;;3.15;1.75;;;;;;;-0.60;84.24;101199.47;5031727;28;20108;-63
2021/03/16 02:43:06;;;;;;;6.05;2.20;;;;;;;-0.60;84.31;101207.34;5032483;28;20064;-63
2021/03/16 02:45:51;;;;;;;5.05;2.38;;;;;;;-0.65;84.28;101212.00;5017720;28;20079;-63
2021/03/16 02:48:37;;;;;;;4.43;2.60;;;;;;;-0.71;84.61;101209.66;5032007;28;20061;-63
2021/03/16 02:51:23;;;;;;;3.25;1.70;;;;;;;-0.73;84.86;101214.97;5032282;28;20088;-63
2021/03/16 02:54:09;;;;;;;8.00;1.75;;;;;;;-0.73;84.79;101212.34;5032293;28;20056;-63
2021/03/16 02:56:53;;;;;;;2.90;1.60;;;;;;;-0.58;84.29;101218.59;5032111;28;20107;-63
2021/03/16 02:59:41;;;;;;;3.88;1.70;;;;;;;-0.59;84.05;101216.91;5031918;28;20096;-63
2021/03/16 03:02:26;;;;;;;3.08;1.70;;;;;;;-0.65;84.23;101227.72;5017586;28;20060;-63
2021/03/16 03:05:11;;;;;;;5.55;1.83;;;;;;;-0.66;84.36;101232.13;5032117;28;20048;-63
2021/03/16 03:07:55;;;;;;;4.00;1.92;;;;;;;-0.67;84.08;101232.19;5031735;28;20142;-63
2021/03/16 03:10:40;;;;;;;8.25;2.65;;;;;;;-0.73;84.40;101237.75;5032344;28;20052;-63
2021/03/16 03:13:24;;;;;;;6.60;1.90;;;;;;;-0.80;84.45;101244.22;5032033;28;20122;-63
2021/03/16 03:16:08;;;;;;;7.57;2.58;;;;;;;-0.91;85.06;101245.63;5031827;28;20052;-63
2021/03/16 03:18:52;;;;;;;3.70;1.75;;;;;;;-0.84;85.34;101243.53;5031454;28;20048;-63
2021/03/16 03:21:44;;;;;;;8.40;2.50;;;;;;;-0.82;85.19;101246.06;5031861;28;20043;-63
2021/03/16 03:24:33;;;;;;;7.25;1.90;;;;;;;-0.98;85.26;101246.00;5031834;28;20103;-63
2021/03/16 03:27:29;;;;;;;5.95;2.17;;;;;;;-1.02;86.16;101253.16;5031625;28;20090;-63
2021/03/16 03:30:14;;;;;;;6.70;2.55;;;;;;;-1.06;86.31;101256.84;5030947;28;20107;-63
2021/03/16 03:33:01;;;;;;;4.20;2.05;;;;;;;-1.02;86.46;101253.16;5031575;28;20055;-63
2021/03/16 03:35:46;;;;;;;4.03;2.05;;;;;;;-1.08;86.46;101261.31;5031664;28;20052;-63
2021/03/16 03:38:31;;;;;;;5.82;1.88;;;;;;;-1.04;86.88;101260.25;5031268;28;20052;-63
2021/03/16 03:41:16;;;;;;;4.15;2.22;;;;;;;-0.99;87.12;101255.63;5031509;28;20075;-63
2021/03/16 03:44:02;;;;;;;6.25;2.92;;;;;;;-0.97;86.99;101272.13;5031383;28;20051;-63
2021/03/16 03:46:46;;;;;;;;;;;;;;;-0.97;87.15;101263.41;5031932;28;20048;-63
2021/03/16 03:49:30;;;;;;;9.18;2.17;;;;;;;-1.09;87.23;101265.72;5031013;28;19924;-63
2021/03/16 03:52:18;;;;;;;5.70;2.47;;;;;;;-1.03;87.42;101264.59;5031405;28;20087;-63
2021/03/16 03:55:05;;;;;;;9.48;2.85;;;;;;;-0.99;87.69;101266.09;5031309;28;20056;-63
2021/03/16 03:57:51;;;;;;;7.20;3.17;;;;;;;-0.95;88.13;101267.66;5030943;28;20119;-63
2021/03/16 04:00:36;;;;;;;10.13;3.35;;;;;;;-0.89;88.25;101277.84;5031273;28;20546;-63
2021/03/16 04:03:20;;;;;;;5.63;2.50;;;;;;;-0.83;88.20;101270.59;5031307;28;20051;-63
2021/03/16 04:06:04;;;;;;;9.18;3.20;;;;;;;-0.85;88.12;101279.38;5031254;28;20115;-63
2021/03/16 04:08:50;;;;;;;9.10;3.10;;;;;;;-0.98;88.31;101283.53;5016202;28;20048;-62
2021/03/16 04:11:35;;;;;;;15.25;4.28;;;;;;;-0.92;88.72;101280.59;5016705;28;20052;-63
2021/03/16 04:14:19;;;;;;;9.85;3.20;;;;;;;-0.88;88.68;101290.03;5031210;28;20490;-63
2021/03/16 04:17:04;;;;;;;9.25;3.25;;;;;;;-0.88;88.84;101283.94;5031048;28;20436;-63
2021/03/16 04:19:51;;;;;;;8.27;3.70;;;;;;;-0.90;89.08;101285.78;5030922;28;20048;-63
2021/03/16 04:22:36;;;;;;;10.57;3.67;;;;;;;-0.91;89.21;101290.19;5030991;28;20048;-63
2021/03/16 04:25:20;;;;;;;7.40;3.63;;;;;;;-0.93;89.50;101285.94;5031022;28;20438;-63
2021/03/16 04:28:04;;;;;;;15.35;4.50;;;;;;;-0.83;89.59;101294.19;5030704;28;20051;-63
2021/03/16 04:30:47;;;;;;;10.32;3.60;;;;;;;-0.83;89.67;101295.03;5030851;28;20500;-62
2021/03/16 04:33:31;;;;;;;8.50;4.13;;;;;;;-0.90;89.56;101301.50;5016306;28;20045;-63
2021/03/16 04:36:15;;;;;;;20.60;4.88;;;;;;;-0.87;89.81;101301.34;5016463;28;20040;-63
2021/03/16 04:38:59;;;;;;;10.52;4.63;;;;;;;-0.82;90.10;101302.00;5030498;28;20096;-63
2021/03/16 04:41:43;;;;;;;13.35;4.93;;;;;;;-0.85;90.08;101310.00;5032001;28;20084;-63
2021/03/16 04:44:27;;;;;;;11.85;4.32;;;;;;;-0.86;90.22;101319.63;5034665;28;20056;-63
2021/03/16 04:47:11;;;;;;;24.15;5.88;;;;;;;-0.86;90.20;101322.25;5020172;28;20520;-63
2021/03/16 04:49:55;;;;;;;74.70;7.53;;;;;;;-0.83;90.41;101323.03;5034470;28;20052;-63
2021/03/16 04:52:39;;;;;;;12.50;4.57;;;;;;;-0.96;90.60;101322.78;5034611;28;20110;-63
2021/03/16 04:55:23;;;;;;;20.55;6.53;;;;;;;-0.96;90.64;101326.25;5034520;28;20064;-63
2021/03/16 04:58:06;;;;;;;16.00;5.13;;;;;;;-0.92;90.78;101324.31;5034065;28;20381;-63
2021/03/16 05:00:51;;;;;;;18.65;6.38;;;;;;;-0.91;91.05;101332.13;5034452;28;20048;-63
2021/03/16 05:03:34;;;;;;;12.98;4.97;;;;;;;-0.90;91.03;101339.06;5034446;28;20099;-63
2021/03/16 05:06:18;;;;;;;12.00;4.90;;;;;;;-0.89;91.02;101338.16;5034206;28;20045;-63
2021/03/16 05:09:02;;;;;;;16.95;5.50;;;;;;;-0.90;91.21;101331.19;5034022;28;20486;-63
2021/03/16 05:11:46;;;;;;;25.75;6.53;;;;;;;-0.95;91.18;101333.19;5033489;28;20125;-63
2021/03/16 05:14:30;;;;;;;26.00;8.68;;;;;;;-0.95;91.53;101343.69;5034128;28;20072;-63
2021/03/16 05:17:15;;;;;;;26.52;6.35;;;;;;;-0.90;91.63;101349.53;5019337;28;20390;-63
2021/03/16 05:19:59;;;;;;;19.50;7.03;;;;;;;-0.65;91.89;101353.59;5034082;28;20050;-63
2021/03/16 05:22:43;;;;;;;19.63;6.72;;;;;;;-0.66;92.20;101360.63;5034074;28;20440;-63
2021/03/16 05:25:27;;;;;;;24.73;9.13;;;;;;;-0.53;91.99;101353.00;5033947;28;20060;-63
2021/03/16 05:28:12;;;;;;;26.65;9.52;;;;;;;-0.51;92.05;101360.78;5033552;28;20056;-63
2021/03/16 05:30:55;;;;;;;71.15;10.27;;;;;;;-0.53;92.34;101363.47;5033828;28;20103;-63
2021/03/16 05:33:39;;;;;;;40.97;11.43;;;;;;;-0.55;92.38;101365.31;5034112;28;20477;-63
2021/03/16 05:36:23;;;;;;;39.20;11.77;;;;;;;-0.55;92.59;101374.97;5033673;28;20064;-63
2021/03/16 05:39:07;;;;;;;31.65;10.82;;;;;;;-0.52;92.65;101373.03;5033849;28;20061;-63
2021/03/16 05:41:53;;;;;;;36.70;12.73;;;;;;;-0.50;92.67;101376.44;5033544;28;20048;-63
2021/03/16 05:44:38;;;;;;;67.55;14.63;;;;;;;-0.48;92.74;101371.97;5019025;28;20087;-63
2021/03/16 05:47:22;;;;;;;39.87;12.90;;;;;;;-0.48;93.00;101387.72;5033496;28;20064;-63
2021/03/16 05:50:07;;;;;;;55.80;13.95;;;;;;;-0.50;92.79;101383.47;5033251;28;20295;-63
2021/03/16 05:52:55;;;;;;;47.65;15.80;;;;;;;-0.46;92.94;101396.34;5018251;28;20056;-63
2021/03/16 05:55:39;;;;;;;62.08;15.95;;;;;;;-0.49;92.87;101396.50;5032674;28;20140;-63
2021/03/16 05:58:23;;;;;;;42.90;15.07;;;;;;;-0.45;93.14;101408.53;5033253;28;20091;-63
2021/03/16 06:01:09;;;;;;;52.75;15.52;;;;;;;-0.44;93.35;101407.63;5033321;28;20059;-63
2021/03/16 06:03:53;;;;;;;49.80;14.63;;;;;;;-0.38;93.35;101408.25;5033315;28;20103;-63
2021/03/16 06:06:38;;;;;;;25.88;11.90;;;;;;;-0.37;93.19;101408.19;5033099;28;20115;-63
2021/03/16 06:09:22;;;;;;;36.65;13.27;;;;;;;-0.35;93.33;101408.09;5032857;28;20083;-63
2021/03/16 06:12:07;;;;;;;36.88;15.10;;;;;;;-0.38;93.15;101411.72;5033358;28;20096;-63
2021/03/16 06:14:51;;;;;;;26.98;13.65;;;;;;;-0.33;93.17;101419.34;5033146;28;20088;-63
2021/03/16 06:17:41;;;;;;;37.08;13.80;;;;;;;-0.34;93.11;101421.13;5031871;28;20060;-63
2021/03/16 06:20:28;;;;;;;27.80;10.90;;;;;;;-0.33;93.20;101420.22;5032995;28;20482;-63
2021/03/16 06:23:13;;;;;;;38.85;12.05;;;;;;;-0.35;93.21;101418.56;5032765;28;20055;-63
2021/03/16 06:25:57;;;;;;;42.42;14.32;;;;;;;-0.28;93.36;101422.59;5032882;28;20106;-63
2021/03/16 06:28:41;;;;;;;51.30;14.35;;;;;;;-0.23;93.42;101423.25;5017821;28;20047;-63
2021/03/16 06:31:25;;;;;;;45.92;14.10;;;;;;;-0.13;93.42;101423.63;5032741;28;20051;-63
2021/03/16 06:34:24;;;;;;;64.68;17.33;;;;;;;-0.09;93.71;101423.41;5032627;28;20051;-63
2021/03/16 06:37:08;;;;;;;36.05;14.25;;;;;;;-0.03;93.31;101428.31;5032570;28;20474;-63
2021/03/16 06:39:54;;;;;;;47.50;13.95;;;;;;;0.04;93.54;101430.63;5032412;28;20107;-63
2021/03/16 06:42:38;;;;;;;67.93;14.88;;;;;;;0.09;93.51;101436.50;5032549;28;20049;-63
2021/03/16 06:45:29;;;;;;;44.08;15.18;;;;;;;0.13;93.58;101438.06;5032550;28;20103;-63
2021/03/16 06:48:21;;;;;;;64.20;16.50;;;;;;;0.22;93.64;101434.13;5032062;28;20473;-63
2021/03/16 06:51:14;;;;;;;39.63;14.15;;;;;;;0.35;93.86;101432.53;5032389;28;20053;-63
2021/03/16 06:54:09;;;;;;;43.92;15.35;;;;;;;0.44;93.73;101431.22;5032568;28;20148;-63
2021/03/16 06:56:58;;;;;;;35.25;12.02;;;;;;;1.21;94.88;101428.75;5032478;28;20114;-63
2021/03/16 06:59:42;;;;;;;29.42;12.77;;;;;;;2.00;94.99;101433.03;5031190;28;20068;-63
2021/03/16 07:02:29;;;;;;;36.40;12.45;;;;;;;1.60;93.65;101437.97;5032288;28;20056;-63
2021/03/16 07:05:27;;;;;;;55.17;13.27;;;;;;;1.29;92.74;101444.13;5030907;28;20079;-63
2021/03/16 07:08:14;;;;;;;34.65;11.80;;;;;;;1.14;91.93;101443.19;5016940;28;20040;-63
2021/03/16 07:11:00;;;;;;;33.08;12.27;;;;;;;1.18;92.07;101436.81;5031820;28;20056;-63
2021/03/16 07:13:44;;;;;;;40.13;12.73;;;;;;;1.22;91.89;101445.41;5031141;28;20134;-63
2021/03/16 07:16:29;;;;;;;41.20;11.35;;;;;;;1.22;91.71;101448.88;5017253;28;20056;-63
2021/03/16 07:19:15;;;;;;;43.28;12.70;;;;;;;1.23;91.46;101453.19;5031490;28;20441;-63
2021/03/16 07:22:01;;;;;;;26.67;9.80;;;;;;;1.36;91.56;101460.41;5031778;28;20367;-63
2021/03/16 07:24:45;;;;;;;;;;;;;;;1.47;91.51;101450.13;5032128;28;20490;-63
2021/03/16 07:27:30;;;;;;;31.00;9.90;;;;;;;1.56;91.29;101457.50;5031624;28;20389;-63
2021/03/16 07:30:15;;;;;;;35.08;10.68;;;;;;;1.58;90.84;101460.91;5031676;28;20051;-63
2021/03/16 07:33:00;;;;;;;30.95;8.27;;;;;;;1.78;90.52;101461.53;5016987;28;20103;-63
2021/03/16 07:35:45;;;;;;;32.97;10.73;;;;;;;1.80;89.26;101451.75;5031668;28;20268;-63
2021/03/16 07:38:29;;;;;;;23.83;7.80;;;;;;;1.87;89.01;101461.88;5031105;28;20532;-63
2021/03/16 07:41:15;;;;;;;30.10;8.88;;;;;;;1.94;88.24;101458.88;5030683;28;20075;-63
2021/03/16 07:44:11;;;;;;;27.95;9.63;;;;;;;2.09;87.84;101447.44;5016831;28;20130;-63
2021/03/16 07:46:58;;;;;;;;;;;;;;;2.27;87.80;101450.75;5017172;28;20623;-63
2021/03/16 07:49:42;;;;;;;23.02;7.00;;;;;;;2.32;87.33;101451.34;5030883;28;20002;-63
2021/03/16 07:52:26;;;;;;;27.02;7.78;;;;;;;2.34;86.63;101465.25;5031369;28;20103;-63
2021/03/16 07:55:23;;;;;;;21.10;6.72;;;;;;;2.50;86.43;101452.84;5031240;28;20056;-63
2021/03/16 07:58:12;;;;;;;35.33;9.38;;;;;;;2.70;85.94;101466.63;5030929;28;20060;-63
2021/03/16 08:01:06;;;;;;;31.42;6.75;;;;;;;2.71;85.49;101463.03;5016557;28;20068;-63
2021/03/16 08:03:51;;;;;;;18.70;7.18;;;;;;;2.71;83.79;101477.06;5030526;28;20107;-63
2021/03/16 08:06:36;;;;;;;39.70;9.98;;;;;;;2.70;83.73;101472.75;5016812;28;20095;-63
2021/03/16 08:09:22;;;;;;;16.45;5.93;;;;;;;2.85;83.74;101470.94;5030937;28;20056;-63
2021/03/16 08:12:33;;;;;;;27.38;7.75;;;;;;;2.86;82.54;101472.66;5031278;28;20060;-63
2021/03/16 08:15:18;;;;;;;22.33;8.05;;;;;;;3.07;82.75;101469.63;5030373;28;20107;-64
2021/03/16 08:18:02;;;;;;;22.88;6.82;;;;;;;3.30;82.27;101471.66;5033500;28;20102;-63
2021/03/16 08:20:47;;;;;;;25.00;6.53;;;;;;;3.27;81.02;101471.00;5035157;28;20091;-63
2021/03/16 08:23:32;;;;;;;18.90;5.83;;;;;;;3.28;81.37;101483.25;5034965;28;20125;-63
2021/03/16 08:26:16;;;;;;;20.73;5.80;;;;;;;3.27;80.69;101482.38;5034431;28;20061;-63
2021/03/16 08:29:00;;;;;;;21.00;5.50;;;;;;;3.40;80.74;101486.91;5034692;28;20060;-63
2021/03/16 08:31:44;;;;;;;15.43;5.97;;;;;;;3.67;80.46;101487.75;5034119;28;20124;-64
2021/03/16 08:34:30;;;;;;;19.08;5.50;;;;;;;3.71;80.27;101486.63;5034766;28;20048;-63
2021/03/16 08:37:21;;;;;;;;;;;;;;;3.81;80.21;101487.69;5035219;28;20095;-64
2021/03/16 08:40:07;;;;;;;25.27;6.10;;;;;;;3.88;79.48;101495.22;5020360;28;19923;-64
2021/03/16 08:42:51;;;;;;;22.75;5.18;;;;;;;4.05;79.35;101499.38;5034715;28;20092;-64
2021/03/16 08:45:35;;;;;;;28.10;5.00;;;;;;;4.12;78.80;101503.31;5034733;28;20063;-64
2021/03/16 08:48:27;;;;;;;22.73;5.75;;;;;;;4.05;78.08;101502.91;5033828;28;20043;-64
2021/03/16 08:51:11;;;;;;;16.85;4.40;;;;;;;4.00;76.80;101507.63;5034520;28;20107;-64
2021/03/16 08:53:56;;;;;;;16.50;4.35;;;;;;;3.97;76.79;101507.84;5034622;28;20048;-64
2021/03/16 08:56:40;;;;;;;16.80;4.18;;;;;;;4.33;77.31;101504.53;5034457;28;20134;-64
2021/03/16 08:59:24;;;;;;;12.60;3.78;;;;;;;4.29;76.15;101523.34;5034224;28;20075;-64
2021/03/16 09:02:17;;;;;;;18.88;4.63;;;;;;;4.33;74.88;101514.25;5034617;28;20040;-64
2021/03/16 09:05:02;;;;;;;19.73;4.65;;;;;;;4.68;75.50;101514.50;5034350;28;20128;-64
2021/03/16 09:07:47;;;;;;;19.73;5.18;;;;;;;4.69;74.15;101518.84;5033956;28;20087;-64
2021/03/16 09:10:32;;;;;;;21.77;4.13;;;;;;;4.40;75.30;101520.81;5033652;28;20107;-64
2021/03/16 09:13:27;;;;;;;22.50;3.67;;;;;;;4.90;74.22;101519.16;5019495;28;20048;-64
2021/03/16 09:16:21;;;;;;;18.77;5.07;;;;;;;4.96;74.23;101523.16;5033834;28;20095;-64
2021/03/16 09:19:05;;;;;;;12.93;4.55;;;;;;;5.02;73.04;101514.81;5033834;28;20111;-64
2021/03/16 09:21:54;;;;;;;24.88;4.80;;;;;;;5.33;72.78;101515.28;5034002;28;20485;-64
2021/03/16 09:24:43;;;;;;;22.85;5.10;;;;;;;5.36;72.77;101518.56;5033912;28;20044;-64
2021/03/16 09:27:28;;;;;;;15.07;3.53;;;;;;;5.46;71.63;101527.53;5032733;28;20528;-64
2021/03/16 09:30:13;;;;;;;14.05;5.60;;;;;;;5.47;72.36;101523.91;5033364;28;20056;-64
2021/03/16 09:32:57;;;;;;;19.60;4.32;;;;;;;5.46;71.41;101532.00;5033694;28;20111;-64
2021/03/16 09:35:42;;;;;;;20.75;4.60;;;;;;;5.65;71.20;101534.16;5033559;28;20052;-64
2021/03/16 09:38:26;;;;;;;13.07;3.20;;;;;;;5.84;71.17;101533.66;5033374;28;20052;-65
2021/03/16 09:41:09;;;;;;;12.95;4.63;;;;;;;5.40;71.12;101543.03;5016250;28;20968;-64
2021/03/16 09:43:38;;;;;;;18.75;3.90;;;;;;;5.04;71.59;101545.50;5016147;28;20421;-64
2021/03/16 09:46:12;;;;;;;17.52;5.10;;;;;;;5.22;73.34;101548.69;5033490;28;20168;-64
2021/03/16 09:48:55;;;;;;;26.83;6.93;;;;;;;5.50;72.06;101547.56;5033082;28;20077;-64
2021/03/16 09:51:24;;;;;;;15.55;3.65;;;;;;;5.62;71.91;101547.59;5016005;28;20045;-64
2021/03/16 09:53:51;;;;;;;14.40;3.55;;;;;;;5.32;72.22;101548.03;5015902;28;20029;-64
2021/03/16 09:56:17;;;;;;;17.02;4.60;;;;;;;5.18;71.82;101549.84;5032275;28;20033;-64
2021/03/16 09:58:47;;;;;;;15.80;5.85;;;;;;;5.32;71.18;101559.47;4999350;28;20090;-64
2021/03/16 10:01:13;;;;;;;17.38;4.40;;;;;;;5.20;71.32;101555.03;5015777;28;20041;-64
2021/03/16 10:03:39;;;;;;;19.95;4.15;;;;;;;5.28;70.44;101547.38;5033214;28;20036;-64
2021/03/16 10:06:05;;;;;;;13.03;3.57;;;;;;;5.67;69.13;101556.94;5015736;28;20041;-64
2021/03/16 10:08:31;;;;;;;16.63;4.30;;;;;;;5.80;68.86;101553.38;5032740;28;20037;-64
2021/03/16 10:10:57;;;;;;;14.93;3.80;;;;;;;6.30;69.17;101555.00;5033020;28;20102;-64
2021/03/16 10:13:40;;;;;;;17.35;4.68;;;;;;;6.42;68.31;101549.72;5033015;28;20427;-64
2021/03/16 10:16:10;;;;;;;16.20;4.15;;;;;;;6.62;66.67;101567.63;5015597;28;20037;-64
2021/03/16 10:18:44;;;;;;;10.90;3.13;;;;;;;5.87;68.16;101573.19;5032491;28;20044;-64
2021/03/16 10:21:10;;;;;;;16.73;4.47;;;;;;;7.28;64.99;101566.97;5032931;28;20045;-65
2021/03/16 10:23:35;;;;;;;12.27;3.50;;;;;;;7.95;62.84;101564.22;5032532;28;20124;-64
2021/03/16 10:26:04;;;;;;;11.10;3.53;;;;;;;8.71;62.71;101564.16;5032636;28;20029;-64
2021/03/16 10:28:32;;;;;;;13.65;3.60;;;;;;;7.40;61.94;101566.03;5032112;28;20033;-64
2021/03/16 10:31:18;;;;;;;15.15;3.53;;;;;;;7.91;61.79;101569.91;5032625;28;20044;-65
2021/03/16 10:33:55;;;;;;;17.88;4.10;;;;;;;7.70;61.13;101577.81;5015359;28;20060;-64
2021/03/16 10:36:21;;;;;;;15.00;3.90;;;;;;;7.63;61.37;101587.25;5032475;28;20048;-64
2021/03/16 10:38:49;;;;;;;11.70;3.38;;;;;;;7.78;62.29;101575.38;5032201;28;20098;-65
2021/03/16 10:41:16;;;;;;;14.80;4.05;;;;;;;8.02;61.58;101584.03;5014717;28;20045;-64
2021/03/16 10:43:41;;;;;;;11.00;3.45;;;;;;;7.10;62.65;101595.84;5032228;28;20092;-64
2021/03/16 10:46:06;;;;;;;15.50;4.37;;;;;;;6.98;65.28;101581.69;5031068;28;20087;-65
2021/03/16 10:48:32;;;;;;;13.40;5.13;;;;;;;6.96;64.26;101588.94;5031852;28;20119;-65
2021/03/16 10:50:57;;;;;;;13.73;3.53;;;;;;;6.81;63.63;101590.09;5014828;28;20049;-64
2021/03/16 10:53:22;;;;;;;10.27;3.30;;;;;;;8.15;61.77;101583.03;5014711;28;20048;-65
2021/03/16 10:55:48;;;;;;;14.83;3.93;;;;;;;8.16;59.84;101582.06;5014629;28;20033;-65
2021/03/16 10:58:15;;;;;;;10.23;3.00;;;;;;;8.04;60.37;101582.06;5014322;28;20034;-64
2021/03/16 11:00:40;;;;;;;15.70;3.45;;;;;;;8.37;61.69;101580.25;5014444;28;20474;-65
2021/03/16 11:03:05;;;;;;;14.30;4.17;;;;;;;8.49;59.14;101588.22;5032035;28;20072;-64
2021/03/16 11:05:31;;;;;;;13.87;3.70;;;;;;;9.00;59.35;101574.13;5031951;28;20073;-65
2021/03/16 11:07:57;;;;;;;16.55;3.97;;;;;;;8.66;60.62;101583.19;5031729;28;20075;-65
2021/03/16 11:10:23;;;;;;;15.10;3.25;;;;;;;8.73;59.01;101585.31;5032002;28;20069;-64
2021/03/16 11:12:48;;;;;;;14.37;4.67;;;;;;;8.80;57.62;101586.47;5014547;28;20480;-64
2021/03/16 11:15:14;;;;;;;14.23;4.27;;;;;;;9.24;56.51;101582.66;5031020;28;20041;-64
2021/03/16 11:17:39;;;;;;;15.27;2.77;;;;;;;8.94;57.66;101580.81;5031428;28;20037;-65
2021/03/16 11:20:06;;;;;;;10.77;4.23;;;;;;;8.90;57.63;101583.88;5014422;28;20128;-64
2021/03/16 11:22:31;;;;;;;12.48;2.83;;;;;;;8.11;60.28;101586.91;5031769;28;20092;-65
2021/03/16 11:24:57;;;;;;;8.63;4.43;;;;;;;8.92;57.40;101581.94;5014389;28;20053;-64
2021/03/16 11:27:22;;;;;;;11.47;3.40;;;;;;;9.28;56.35;101573.44;4997691;28;20073;-64
2021/03/16 11:29:47;;;;;;;13.13;3.50;;;;;;;9.52;55.96;101575.75;5031379;28;20029;-65
2021/03/16 11:32:13;;;;;;;10.73;3.60;;;;;;;9.37;55.69;101581.63;5031413;28;20029;-65
2021/03/16 11:34:56;;;;;;;11.68;4.30;;;;;;;9.94;54.58;101585.41;5031567;28;20049;-65
2021/03/16 11:37:40;;;;;;;14.70;5.05;;;;;;;9.40;56.53;101584.84;5031143;28;20507;-65
2021/03/16 11:40:24;;;;;;;8.13;2.50;;;;;;;10.43;54.35;101580.16;5031569;28;20056;-65
2021/03/16 11:43:08;;;;;;;9.27;3.47;;;;;;;11.56;50.15;101574.75;5031478;28;20137;-65
2021/03/16 11:45:52;;;;;;;9.07;3.95;;;;;;;11.84;49.99;101574.75;5031543;28;20068;-65
2021/03/16 11:48:36;;;;;;;11.93;3.63;;;;;;;12.42;47.88;101565.47;5030871;28;20049;-65
2021/03/16 11:51:20;;;;;;;10.85;2.78;;;;;;;12.88;47.19;101568.84;5031086;28;20371;-65
2021/03/16 11:54:04;;;;;;;12.65;2.85;;;;;;;12.58;47.52;101567.44;5031307;28;20087;-65
2021/03/16 11:56:48;;;;;;;11.45;2.80;;;;;;;11.26;49.52;101573.22;5016357;28;20060;-65
2021/03/16 11:59:32;;;;;;;8.88;3.05;;;;;;;10.61;52.58;101573.09;5031036;28;20056;-65
2021/03/16 12:02:16;;;;;;;9.95;2.95;;;;;;;9.84;54.67;101572.06;5031207;28;20198;-65
2021/03/16 12:05:01;;;;;;;9.15;2.40;;;;;;;9.39;54.10;101575.16;5031002;28;20174;-65
2021/03/16 12:07:45;;;;;;;18.02;3.80;;;;;;;10.31;52.51;101582.13;5031211;28;20126;-65
2021/03/16 12:10:29;;;;;;;10.30;2.67;;;;;;;12.21;49.13;101569.28;5016763;28;20378;-65
2021/03/16 12:13:13;;;;;;;11.48;2.50;;;;;;;11.04;50.05;101558.38;5031027;28;20047;-65
2021/03/16 12:15:57;;;;;;;9.18;2.47;;;;;;;10.46;50.63;101570.00;5031081;28;20588;-65
2021/03/16 12:18:41;;;;;;;10.70;3.50;;;;;;;10.17;52.79;101567.31;5030791;28;20521;-65
2021/03/16 12:21:24;;;;;;;7.05;2.42;;;;;;;10.09;54.29;101568.03;5031235;28;20049;-65
2021/03/16 12:24:10;;;;;;;10.77;3.42;;;;;;;10.27;52.47;101576.16;5031061;28;20060;-65